Time;durP1;ratioP1;P1;durP2;ratioP2;P2;SDS_P1;SDS_P2;PMS_P1;PMS_P2;Temp;Humidity;BMP_temperature;BMP_pressure;BME280_temperature;BME280_humidity;BME280_pressure;Samples;Min_cycle;Max_cycle;Signal;HPM_P1;HPM_P2
2021/01/01 00:01:45;;;;;;;26.30;15.50;;;3.00;99.90;;;;;;5081338;28;20413;-78
2021/01/01 00:04:10;;;;;;;19.10;12.57;;;3.00;99.90;;;;;;5079808;28;20454;-78
2021/01/01 00:06:37;;;;;;;18.43;13.03;;;3.00;99.90;;;;;;5083324;28;20476;-79
2021/01/01 00:09:04;;;;;;;20.13;12.63;;;3.00;99.90;;;;;;5059533;28;20191;-78
2021/01/01 00:11:30;;;;;;;12.17;9.13;;;3.10;99.90;;;;;;5081651;28;20420;-78
2021/01/01 00:13:56;;;;;;;11.97;8.97;;;3.00;99.90;;;;;;5079446;28;20488;-78
2021/01/01 00:16:21;;;;;;;11.23;8.17;;;3.00;99.90;;;;;;5066125;28;20214;-77
2021/01/01 00:18:47;;;;;;;12.80;8.70;;;3.10;99.90;;;;;;5080464;28;20189;-77
2021/01/01 00:21:13;;;;;;;12.13;8.37;;;3.10;99.90;;;;;;5068084;28;20196;-77
2021/01/01 00:23:39;;;;;;;14.23;7.30;;;3.20;99.90;;;;;;5083007;28;20447;-77
2021/01/01 00:26:14;;;;;;;10.30;7.30;;;3.20;99.90;;;;;;5083726;28;20247;-77
2021/01/01 00:28:46;;;;;;;15.17;9.13;;;3.20;99.90;;;;;;5076757;28;20182;-79
2021/01/01 00:31:22;;;;;;;14.17;9.07;;;3.30;99.90;;;;;;5077557;28;20412;-77
2021/01/01 00:33:48;;;;;;;13.73;8.83;;;3.30;99.90;;;;;;5081677;28;20453;-77
2021/01/01 00:36:14;;;;;;;14.80;9.40;;;3.30;99.90;;;;;;5080610;28;20445;-78
2021/01/01 00:38:46;;;;;;;10.40;8.17;;;3.30;99.90;;;;;;5082993;28;20836;-77
2021/01/01 00:41:13;;;;;;;13.23;9.13;;;3.30;99.90;;;;;;5080149;28;20448;-77
2021/01/01 00:43:39;;;;;;;12.90;8.50;;;3.30;99.90;;;;;;5083457;28;20452;-78
2021/01/01 00:46:06;;;;;;;18.73;9.27;;;3.20;99.90;;;;;;5062020;28;20630;-78
2021/01/01 00:48:31;;;;;;;14.57;9.23;;;3.20;99.90;;;;;;5083466;28;20192;-78
2021/01/01 00:50:57;;;;;;;12.70;8.93;;;3.20;99.90;;;;;;5064374;28;20433;-78
2021/01/01 00:53:22;;;;;;;9.60;8.23;;;3.20;99.90;;;;;;5079135;28;20226;-78
2021/01/01 00:55:48;;;;;;;10.40;7.83;;;3.10;99.90;;;;;;5064101;28;20269;-79
2021/01/01 00:58:13;;;;;;;11.33;8.10;;;3.10;99.90;;;;;;5079787;28;20207;-80
2021/01/01 01:00:39;;;;;;;10.97;7.50;;;3.10;99.90;;;;;;5079898;28;20184;-79
2021/01/01 01:03:04;;;;;;;12.40;8.73;;;3.10;99.90;;;;;;5083564;28;20214;-81
2021/01/01 01:05:30;;;;;;;10.47;8.40;;;3.00;99.90;;;;;;5080132;28;20186;-79
2021/01/01 01:07:55;;;;;;;11.50;9.03;;;3.10;99.90;;;;;;5063949;28;20178;-78
2021/01/01 01:10:21;;;;;;;10.57;7.80;;;3.10;99.90;;;;;;5081063;28;20177;-80
2021/01/01 01:12:47;;;;;;;10.53;7.33;;;3.10;99.90;;;;;;5080906;28;20212;-78
2021/01/01 01:15:12;;;;;;;13.20;8.00;;;3.10;99.90;;;;;;5082889;28;20647;-78
2021/01/01 01:17:41;;;;;;;10.70;7.53;;;3.10;99.90;;;;;;5061782;28;20188;-79
2021/01/01 01:20:08;;;;;;;12.00;8.10;;;3.10;99.90;;;;;;5075889;28;20215;-79
2021/01/01 01:22:34;;;;;;;12.33;8.87;;;3.10;99.90;;;;;;5061054;28;20507;-79
2021/01/01 01:24:59;;;;;;;10.03;7.83;;;3.00;99.90;;;;;;5082477;28;20419;-79
2021/01/01 01:27:25;;;;;;;10.30;8.17;;;3.10;99.90;;;;;;5062289;28;20192;-79
2021/01/01 01:29:51;;;;;;;12.83;9.47;;;3.10;99.90;;;;;;5080705;28;20251;-78
2021/01/01 01:32:17;;;;;;;11.03;8.83;;;3.10;99.90;;;;;;5081632;28;20270;-79
2021/01/01 01:34:42;;;;;;;13.00;9.03;;;3.10;99.90;;;;;;5079509;28;20396;-80
2021/01/01 01:37:08;;;;;;;13.40;9.50;;;3.10;99.90;;;;;;5082776;28;20178;-78
2021/01/01 01:39:34;;;;;;;16.10;11.00;;;3.10;99.90;;;;;;5073724;28;20426;-77
2021/01/01 01:41:59;;;;;;;12.50;8.30;;;3.10;99.90;;;;;;5079370;28;20178;-78
2021/01/01 01:44:25;;;;;;;13.57;9.97;;;3.10;99.90;;;;;;5082282;28;20186;-78
2021/01/01 01:46:51;;;;;;;14.23;8.37;;;3.20;99.90;;;;;;5081097;28;20227;-78
2021/01/01 01:49:17;;;;;;;16.73;10.07;;;3.20;99.90;;;;;;5080335;28;20181;-79
2021/01/01 01:51:46;;;;;;;14.17;10.17;;;3.20;99.90;;;;;;5081458;28;20416;-79
2021/01/01 01:54:13;;;;;;;12.53;9.20;;;3.20;99.90;;;;;;5078736;28;20484;-78
2021/01/01 01:56:41;;;;;;;10.93;8.73;;;3.20;99.90;;;;;;5079302;28;20523;-78
2021/01/01 01:59:07;;;;;;;13.27;10.50;;;3.20;99.90;;;;;;5078542;28;20772;-78
2021/01/01 02:01:32;;;;;;;10.00;8.60;;;3.20;99.90;;;;;;5082691;28;20419;-78
2021/01/01 02:03:58;;;;;;;11.60;9.13;;;3.30;99.90;;;;;;5080287;28;20692;-78
2021/01/01 02:06:23;;;;;;;12.53;8.47;;;3.20;99.90;;;;;;5080478;28;20336;-78
2021/01/01 02:08:51;;;;;;;12.90;8.60;;;3.30;99.90;;;;;;5078588;28;20182;-78
2021/01/01 02:11:16;;;;;;;10.10;8.00;;;3.20;99.90;;;;;;5080905;28;20183;-78
2021/01/01 02:13:45;;;;;;;11.80;8.23;;;3.20;99.90;;;;;;5079163;28;20467;-78
2021/01/01 02:16:14;;;;;;;9.97;8.53;;;3.20;99.90;;;;;;5078307;28;20425;-79
2021/01/01 02:18:41;;;;;;;11.80;8.20;;;3.20;99.90;;;;;;5079954;28;20825;-78
2021/01/01 02:21:08;;;;;;;11.63;7.77;;;3.20;99.90;;;;;;5079311;28;20427;-78
2021/01/01 02:23:34;;;;;;;16.77;8.20;;;3.30;99.90;;;;;;5082185;28;20435;-77
2021/01/01 02:26:00;;;;;;;14.27;9.47;;;3.30;99.90;;;;;;5079870;28;20471;-78
2021/01/01 02:28:26;;;;;;;10.60;8.50;;;3.30;99.90;;;;;;5079968;28;20422;-77
2021/01/01 02:30:52;;;;;;;14.40;9.57;;;3.30;99.90;;;;;;5082785;28;20721;-78
2021/01/01 02:33:18;;;;;;;10.57;8.40;;;3.30;99.90;;;;;;5085243;28;20218;-79
2021/01/01 02:35:43;;;;;;;11.67;9.20;;;3.30;99.90;;;;;;5067710;28;20460;-78
2021/01/01 02:38:09;;;;;;;11.63;8.03;;;3.30;99.90;;;;;;5084119;28;20174;-78
2021/01/01 02:40:34;;;;;;;9.03;8.10;;;3.30;99.90;;;;;;5082551;28;20679;-78
2021/01/01 02:43:00;;;;;;;13.87;8.80;;;3.30;99.90;;;;;;5085234;28;20204;-78
2021/01/01 02:45:26;;;;;;;12.23;8.47;;;3.30;99.90;;;;;;5083267;28;20205;-78
2021/01/01 02:47:52;;;;;;;8.43;7.63;;;3.30;99.90;;;;;;5083854;28;20460;-78
2021/01/01 02:50:17;;;;;;;12.47;8.70;;;3.20;99.90;;;;;;5083926;28;20201;-78
2021/01/01 02:52:44;;;;;;;11.17;9.03;;;3.20;99.90;;;;;;5082862;28;20203;-79
2021/01/01 02:55:10;;;;;;;11.13;8.10;;;3.30;99.90;;;;;;5085427;28;20536;-78
2021/01/01 02:57:36;;;;;;;11.90;8.00;;;3.20;99.90;;;;;;5081932;28;20513;-78
2021/01/01 03:00:02;;;;;;;10.47;8.07;;;3.30;99.90;;;;;;5084994;28;20859;-78
2021/01/01 03:02:28;;;;;;;11.83;7.53;;;3.30;99.90;;;;;;5082901;28;20210;-78
2021/01/01 03:04:53;;;;;;;9.17;7.17;;;3.30;99.90;;;;;;5084063;28;20450;-78
2021/01/01 03:07:18;;;;;;;9.33;7.40;;;3.30;99.90;;;;;;5083850;28;20471;-79
2021/01/01 03:09:44;;;;;;;10.40;7.40;;;3.30;99.90;;;;;;5082493;28;20193;-78
2021/01/01 03:12:09;;;;;;;13.73;8.00;;;3.30;99.90;;;;;;5085397;28;20202;-78
2021/01/01 03:14:35;;;;;;;9.30;7.20;;;3.30;99.90;;;;;;5081857;28;20182;-79
2021/01/01 03:17:01;;;;;;;14.73;7.70;;;3.30;99.90;;;;;;5081821;28;20191;-79
2021/01/01 03:19:26;;;;;;;12.93;7.50;;;3.30;99.90;;;;;;5084107;28;20724;-79
2021/01/01 03:21:52;;;;;;;12.47;7.50;;;3.30;99.90;;;;;;5083585;28;20556;-78
2021/01/01 03:24:17;;;;;;;10.77;6.90;;;3.30;99.90;;;;;;5082842;28;20183;-79
2021/01/01 03:26:42;;;;;;;9.67;7.50;;;3.30;99.90;;;;;;5084222;28;20215;-78
2021/01/01 03:29:08;;;;;;;13.80;7.70;;;3.30;99.90;;;;;;5063632;28;20221;-78
2021/01/01 03:31:33;;;;;;;10.00;7.80;;;3.30;99.90;;;;;;5084870;28;20190;-78
2021/01/01 03:33:59;;;;;;;15.07;9.00;;;3.30;99.90;;;;;;5082016;28;20243;-78
2021/01/01 03:36:24;;;;;;;12.00;8.17;;;3.30;99.90;;;;;;5083474;28;20190;-78
2021/01/01 03:38:52;;;;;;;12.53;8.70;;;3.30;99.90;;;;;;5083565;28;20252;-79
2021/01/01 03:41:17;;;;;;;13.50;9.07;;;3.30;99.90;;;;;;5081633;28;20170;-78
2021/01/01 03:43:43;;;;;;;13.20;9.03;;;3.40;99.90;;;;;;5084998;28;20544;-79
2021/01/01 03:46:08;;;;;;;13.07;9.33;;;3.30;99.90;;;;;;5064731;28;20232;-79
2021/01/01 03:48:34;;;;;;;11.30;8.63;;;3.40;99.90;;;;;;5061416;28;20725;-77
2021/01/01 03:51:00;;;;;;;13.33;8.60;;;3.40;99.90;;;;;;5081741;28;20262;-78
2021/01/01 03:53:26;;;;;;;9.83;7.97;;;3.40;99.90;;;;;;5082977;28;20218;-78
2021/01/01 03:55:51;;;;;;;11.10;7.63;;;3.30;99.90;;;;;;5082823;28;20477;-78
2021/01/01 03:58:17;;;;;;;9.87;8.00;;;3.30;99.90;;;;;;5081801;28;20202;-78
2021/01/01 04:00:42;;;;;;;12.90;9.63;;;3.30;99.90;;;;;;5065716;28;20218;-78
2021/01/01 04:03:08;;;;;;;11.20;7.83;;;3.40;99.90;;;;;;5080634;28;20197;-79
2021/01/01 04:05:33;;;;;;;13.10;8.50;;;3.40;99.90;;;;;;5065977;28;20250;-77
2021/01/01 04:07:59;;;;;;;10.20;7.80;;;3.30;99.90;;;;;;5081554;28;20285;-78
2021/01/01 04:10:24;;;;;;;12.23;8.53;;;3.30;99.90;;;;;;5082079;28;20186;-78
2021/01/01 04:12:50;;;;;;;14.30;9.80;;;3.30;99.90;;;;;;5082312;28;20220;-79
2021/01/01 04:15:15;;;;;;;15.80;10.30;;;3.30;99.90;;;;;;5064692;28;20217;-79
2021/01/01 04:17:41;;;;;;;14.73;9.90;;;3.40;99.90;;;;;;5084005;28;20686;-77
2021/01/01 04:20:07;;;;;;;16.03;11.13;;;3.30;99.90;;;;;;5079972;28;20542;-76
2021/01/01 04:22:32;;;;;;;15.60;9.80;;;3.30;99.90;;;;;;5083368;28;20203;-76
2021/01/01 04:24:58;;;;;;;19.30;9.83;;;3.30;99.90;;;;;;5080834;28;20217;-76
2021/01/01 04:27:23;;;;;;;14.30;10.20;;;3.20;99.90;;;;;;5082110;28;20190;-76
2021/01/01 04:29:49;;;;;;;15.77;10.43;;;3.30;99.90;;;;;;5082414;28;20182;-76
2021/01/01 04:32:14;;;;;;;23.27;13.73;;;3.30;99.90;;;;;;5084260;28;20199;-75
2021/01/01 04:34:40;;;;;;;16.33;10.70;;;3.30;99.90;;;;;;5080273;28;20211;-77
2021/01/01 04:37:05;;;;;;;19.33;9.67;;;3.30;99.90;;;;;;5082212;28;20552;-76
2021/01/01 04:39:31;;;;;;;13.47;9.93;;;3.30;99.90;;;;;;5082328;28;20188;-77
2021/01/01 04:41:57;;;;;;;13.60;9.40;;;3.30;99.90;;;;;;5081167;28;20189;-77
2021/01/01 04:44:26;;;;;;;13.43;9.37;;;3.30;99.90;;;;;;5079578;28;20198;-77
2021/01/01 04:46:52;;;;;;;13.20;8.97;;;3.30;99.90;;;;;;5081979;28;20190;-76
2021/01/01 04:49:18;;;;;;;14.00;8.87;;;3.30;99.90;;;;;;5081478;28;20914;-76
2021/01/01 04:51:44;;;;;;;14.03;8.90;;;3.20;99.90;;;;;;5080438;28;20444;-77
2021/01/01 04:54:11;;;;;;;17.97;11.50;;;3.30;99.90;;;;;;5082867;28;20475;-76
2021/01/01 04:56:49;;;;;;;15.10;10.17;;;3.30;99.90;;;;;;5079799;28;20427;-76
2021/01/01 04:59:16;;;;;;;14.17;10.10;;;3.30;99.90;;;;;;5077798;28;20503;-78
2021/01/01 05:01:44;;;;;;;15.30;10.10;;;3.30;99.90;;;;;;5079953;28;21001;-76
2021/01/01 05:04:10;;;;;;;16.83;10.13;;;3.30;99.90;;;;;;5082827;28;20478;-77
2021/01/01 05:06:36;;;;;;;16.83;10.70;;;3.30;99.90;;;;;;5079832;28;20431;-77
2021/01/01 05:09:03;;;;;;;14.77;10.10;;;3.30;99.90;;;;;;5079215;28;20424;-78
2021/01/01 05:11:29;;;;;;;21.07;10.57;;;3.30;99.90;;;;;;5080140;28;20423;-76
2021/01/01 05:13:59;;;;;;;16.03;10.47;;;3.30;99.90;;;;;;5078652;28;20524;-76
2021/01/01 05:16:25;;;;;;;15.13;9.23;;;3.30;99.90;;;;;;5076247;28;20181;-76
2021/01/01 05:18:52;;;;;;;13.17;9.40;;;3.30;99.90;;;;;;5080610;28;20418;-77
2021/01/01 05:21:28;;;;;;;12.13;9.30;;;3.40;99.90;;;;;;5081720;28;20222;-77
2021/01/01 05:23:55;;;;;;;15.53;9.73;;;3.40;99.90;;;;;;5084038;28;20563;-76
2021/01/01 05:26:25;;;;;;;16.00;9.60;;;3.30;99.90;;;;;;5080738;28;20434;-77
2021/01/01 05:28:51;;;;;;;16.47;10.80;;;3.30;99.90;;;;;;5080633;28;20478;-77
2021/01/01 05:31:22;;;;;;;14.93;9.97;;;3.30;99.90;;;;;;5081226;28;20467;-76
2021/01/01 05:34:04;;;;;;;14.83;9.67;;;3.30;99.90;;;;;;5080343;28;20266;-76
2021/01/01 05:36:40;;;;;;;14.13;9.60;;;3.30;99.90;;;;;;5061734;28;20418;-76
2021/01/01 05:39:20;;;;;;;15.80;9.60;;;3.40;99.90;;;;;;5074948;28;20406;-76
2021/01/01 05:41:51;;;;;;;14.47;9.07;;;3.30;99.90;;;;;;5076575;28;20937;-76
2021/01/01 05:44:31;;;;;;;16.03;9.63;;;3.30;99.90;;;;;;5081733;28;20485;-77
2021/01/01 05:47:09;;;;;;;18.67;10.77;;;3.30;99.90;;;;;;5079082;28;20485;-76
2021/01/01 05:49:36;;;;;;;16.70;11.50;;;3.30;99.90;;;;;;5074429;28;20432;-77
2021/01/01 05:52:25;;;;;;;23.77;13.20;;;3.20;99.90;;;;;;5078787;28;20433;-76
2021/01/01 05:55:05;;;;;;;17.80;11.77;;;3.30;99.90;;;;;;5078911;28;20494;-76
2021/01/01 05:57:40;;;;;;;18.57;13.27;;;3.30;99.90;;;;;;5078660;28;20419;-76
2021/01/01 06:00:10;;;;;;;20.70;13.73;;;3.30;99.90;;;;;;5077527;28;20431;-77
2021/01/01 06:02:40;;;;;;;25.10;14.50;;;3.20;99.90;;;;;;5060716;28;20531;-77
2021/01/01 06:05:12;;;;;;;20.17;12.03;;;3.20;99.90;;;;;;5078552;28;20430;-77
2021/01/01 06:07:41;;;;;;;14.53;10.40;;;3.20;99.90;;;;;;5061228;28;20432;-78
2021/01/01 06:10:09;;;;;;;12.33;8.40;;;3.20;99.90;;;;;;5078870;28;20865;-76
2021/01/01 06:12:39;;;;;;;12.13;9.43;;;3.30;99.90;;;;;;5077934;28;20501;-76
2021/01/01 06:15:07;;;;;;;13.47;9.37;;;3.20;99.90;;;;;;5078652;28;20415;-77
2021/01/01 06:17:38;;;;;;;10.00;7.57;;;3.10;99.90;;;;;;5085719;28;20733;-76
2021/01/01 06:20:06;;;;;;;10.80;7.67;;;3.10;99.90;;;;;;5064831;28;20762;-77
2021/01/01 06:22:31;;;;;;;10.00;6.80;;;3.10;99.90;;;;;;5085760;28;20453;-76
2021/01/01 06:25:00;;;;;;;11.20;7.60;;;3.10;99.90;;;;;;5066035;28;20506;-76
2021/01/01 06:27:31;;;;;;;10.30;7.00;;;3.00;99.90;;;;;;5066929;28;20183;-77
2021/01/01 06:30:10;;;;;;;10.40;8.27;;;3.10;99.90;;;;;;5083855;28;20414;-76
2021/01/01 06:32:37;;;;;;;10.60;6.93;;;3.00;99.90;;;;;;5078792;28;20514;-77
2021/01/01 06:35:20;;;;;;;9.67;6.10;;;3.00;99.90;;;;;;5082435;28;20444;-77
2021/01/01 06:37:56;;;;;;;9.40;6.03;;;3.00;99.90;;;;;;5081357;28;20428;-77
2021/01/01 06:40:22;;;;;;;7.83;5.90;;;3.00;99.90;;;;;;5085479;28;20427;-76
2021/01/01 06:42:53;;;;;;;7.63;6.47;;;2.90;99.90;;;;;;5083548;28;20531;-74
2021/01/01 06:45:39;;;;;;;5.97;5.33;;;2.90;99.90;;;;;;5081724;28;20695;-76
2021/01/01 06:48:05;;;;;;;6.43;5.40;;;2.90;99.90;;;;;;5078077;28;20424;-76
2021/01/01 06:50:33;;;;;;;9.63;6.10;;;2.80;99.90;;;;;;5084839;28;20457;-76
2021/01/01 06:53:16;;;;;;;8.13;5.80;;;2.80;99.90;;;;;;5064857;28;20466;-76
2021/01/01 06:55:48;;;;;;;6.37;5.00;;;2.80;99.90;;;;;;5080233;28;20422;-76
2021/01/01 06:58:23;;;;;;;8.70;6.67;;;2.70;99.90;;;;;;5082719;28;20881;-76
2021/01/01 07:00:49;;;;;;;8.03;5.83;;;2.70;99.90;;;;;;5083941;28;20420;-76
2021/01/01 07:03:29;;;;;;;6.73;5.53;;;2.70;99.90;;;;;;5085160;28;20529;-75
2021/01/01 07:06:01;;;;;;;6.00;5.13;;;2.70;99.90;;;;;;5084225;28;20661;-78
2021/01/01 07:08:42;;;;;;;7.83;6.10;;;2.70;99.90;;;;;;5084218;28;20514;-79
2021/01/01 07:11:13;;;;;;;7.20;5.47;;;2.70;99.90;;;;;;5077953;28;20517;-78
2021/01/01 07:13:52;;;;;;;11.00;5.73;;;2.70;99.90;;;;;;5080215;28;20949;-78
2021/01/01 07:16:25;;;;;;;9.60;6.50;;;2.70;99.90;;;;;;5062468;28;20770;-75
2021/01/01 07:18:52;;;;;;;5.53;4.73;;;2.70;99.90;;;;;;5082222;28;20965;-76
2021/01/01 07:21:19;;;;;;;8.80;5.50;;;2.80;99.90;;;;;;5082819;28;20428;-76
2021/01/01 07:23:46;;;;;;;6.30;5.50;;;2.80;99.90;;;;;;5080861;28;20451;-77
2021/01/01 07:26:12;;;;;;;7.43;5.23;;;2.80;99.90;;;;;;5084808;28;20477;-76
2021/01/01 07:28:40;;;;;;;4.90;4.23;;;2.80;99.90;;;;;;5081279;28;20557;-76
2021/01/01 07:31:06;;;;;;;7.17;5.17;;;2.80;99.90;;;;;;5077546;28;20445;-76
2021/01/01 07:33:33;;;;;;;6.20;5.13;;;2.80;99.90;;;;;;5084436;28;20473;-75
2021/01/01 07:36:09;;;;;;;5.50;4.40;;;2.80;99.90;;;;;;5082296;28;20840;-75
2021/01/01 07:38:37;;;;;;;5.03;4.43;;;2.80;99.90;;;;;;5076515;28;20492;-74
2021/01/01 07:41:04;;;;;;;7.80;5.37;;;2.80;99.90;;;;;;5081608;28;20778;-75
2021/01/01 07:43:30;;;;;;;6.47;5.17;;;2.90;99.90;;;;;;5084092;28;20471;-76
2021/01/01 07:45:57;;;;;;;4.93;4.37;;;2.80;99.90;;;;;;5082423;28;20422;-76
2021/01/01 07:48:23;;;;;;;7.40;5.10;;;2.80;99.90;;;;;;5082928;28;20954;-76
2021/01/01 07:50:48;;;;;;;4.87;4.33;;;2.80;99.90;;;;;;5083118;28;20418;-73
2021/01/01 07:53:14;;;;;;;4.97;3.90;;;2.80;99.90;;;;;;5081634;28;20203;-75
2021/01/01 07:55:41;;;;;;;5.40;4.30;;;2.80;99.90;;;;;;5084511;28;20176;-73
2021/01/01 07:58:09;;;;;;;5.27;4.47;;;2.80;99.90;;;;;;5081063;28;20552;-73
2021/01/01 08:00:40;;;;;;;5.73;4.50;;;2.90;99.90;;;;;;5076543;28;20434;-75
2021/01/01 08:03:07;;;;;;;5.67;4.23;;;2.90;99.90;;;;;;5076914;28;20451;-73
2021/01/01 08:05:33;;;;;;;4.87;4.13;;;2.80;99.90;;;;;;5084029;28;20923;-73
2021/01/01 08:08:22;;;;;;;4.10;3.80;;;2.80;99.90;;;;;;5080791;28;20455;-73
2021/01/01 08:10:50;;;;;;;6.73;5.03;;;2.80;99.90;;;;;;5080125;28;20413;-73
2021/01/01 08:13:18;;;;;;;4.63;3.77;;;2.80;99.90;;;;;;5083090;28;20468;-73
2021/01/01 08:15:45;;;;;;;5.07;4.27;;;2.90;99.90;;;;;;5063142;28;20522;-73
2021/01/01 08:18:31;;;;;;;4.50;4.10;;;2.80;99.90;;;;;;5082178;28;20482;-74
2021/01/01 08:20:58;;;;;;;5.10;4.60;;;2.90;99.90;;;;;;5079929;28;20840;-74
2021/01/01 08:23:25;;;;;;;7.07;4.30;;;2.90;99.90;;;;;;5078274;28;20457;-74
2021/01/01 08:25:52;;;;;;;5.27;4.73;;;2.90;99.90;;;;;;5079700;28;20423;-75
2021/01/01 08:28:23;;;;;;;9.07;5.10;;;2.80;99.90;;;;;;5083812;28;20431;-75
2021/01/01 08:31:12;;;;;;;9.23;5.83;;;2.90;99.90;;;;;;5081388;28;20448;-75
2021/01/01 08:33:42;;;;;;;12.30;7.20;;;3.00;99.90;;;;;;5076387;28;20467;-75
2021/01/01 08:36:10;;;;;;;30.77;13.27;;;3.00;99.90;;;;;;5076450;28;20934;-75
2021/01/01 08:38:39;;;;;;;7.67;6.30;;;3.10;99.90;;;;;;5075877;28;20415;-75
2021/01/01 08:41:05;;;;;;;9.30;6.20;;;3.10;99.90;;;;;;5081090;28;20419;-75
2021/01/01 08:43:30;;;;;;;8.20;5.73;;;3.10;99.90;;;;;;5082655;28;20437;-75
2021/01/01 08:45:56;;;;;;;7.30;6.03;;;3.20;99.90;;;;;;5081046;28;20415;-75
2021/01/01 08:48:28;;;;;;;10.67;6.30;;;3.10;99.90;;;;;;5081434;28;20679;-75
2021/01/01 08:50:54;;;;;;;13.97;6.80;;;3.20;99.90;;;;;;5081068;28;20907;-76
2021/01/01 08:53:19;;;;;;;7.10;6.10;;;3.30;99.90;;;;;;5080721;28;20772;-74
2021/01/01 08:55:59;;;;;;;5.90;4.83;;;3.20;99.90;;;;;;5080277;28;20269;-74
2021/01/01 08:58:25;;;;;;;9.10;5.37;;;3.20;99.90;;;;;;5079368;28;20310;-75
2021/01/01 09:00:51;;;;;;;8.93;4.77;;;3.30;99.90;;;;;;5082024;28;20455;-74
2021/01/01 09:03:18;;;;;;;5.80;4.40;;;3.30;99.90;;;;;;5081855;28;20447;-75
2021/01/01 09:05:46;;;;;;;5.50;4.30;;;3.40;99.90;;;;;;5079743;28;20541;-75
2021/01/01 09:08:17;;;;;;;5.53;4.57;;;3.40;99.90;;;;;;5084370;28;20535;-75
2021/01/01 09:10:46;;;;;;;4.73;3.83;;;3.40;99.90;;;;;;5079541;28;20412;-76
2021/01/01 09:13:12;;;;;;;4.33;3.93;;;3.40;99.90;;;;;;5082450;28;20473;-74
2021/01/01 09:15:37;;;;;;;4.87;4.33;;;3.50;99.90;;;;;;5079470;28;20427;-77
2021/01/01 09:18:07;;;;;;;5.27;4.50;;;3.50;99.90;;;;;;5078636;28;20596;-74
2021/01/01 09:20:34;;;;;;;8.63;6.20;;;3.50;99.90;;;;;;5079412;28;20181;-75
2021/01/01 09:23:03;;;;;;;4.97;4.47;;;3.60;99.90;;;;;;5079105;28;20458;-74
2021/01/01 09:25:30;;;;;;;4.60;4.20;;;3.70;99.90;;;;;;5081380;28;20437;-77
2021/01/01 09:27:56;;;;;;;5.10;4.60;;;3.70;99.90;;;;;;5061404;28;20472;-74
2021/01/01 09:30:30;;;;;;;5.83;5.13;;;3.70;99.90;;;;;;5080647;28;20450;-74
2021/01/01 09:32:57;;;;;;;3.80;3.40;;;3.70;99.90;;;;;;5080960;28;20590;-75
2021/01/01 09:35:24;;;;;;;3.83;3.43;;;3.80;99.90;;;;;;5080189;28;20474;-74
2021/01/01 09:37:58;;;;;;;4.43;4.13;;;3.90;99.90;;;;;;5079819;28;20426;-75
2021/01/01 09:40:28;;;;;;;3.53;3.03;;;4.00;99.90;;;;;;5080517;28;20963;-74
2021/01/01 09:42:54;;;;;;;4.10;2.70;;;4.10;99.90;;;;;;5078919;28;20789;-74
2021/01/01 09:45:21;;;;;;;4.27;3.53;;;4.10;99.90;;;;;;5078568;28;20436;-74
2021/01/01 09:47:47;;;;;;;3.37;3.07;;;4.10;99.90;;;;;;5081667;28;20415;-75
2021/01/01 09:50:13;;;;;;;3.33;3.00;;;4.00;99.90;;;;;;5064152;28;20779;-75
2021/01/01 09:52:39;;;;;;;4.33;3.60;;;4.10;99.90;;;;;;5080506;28;21041;-75
2021/01/01 09:55:05;;;;;;;4.00;3.60;;;4.10;99.90;;;;;;5064684;28;20417;-75
2021/01/01 09:57:31;;;;;;;4.23;3.73;;;4.10;99.90;;;;;;5060158;28;20478;-74
2021/01/01 09:59:57;;;;;;;3.70;3.20;;;4.20;99.90;;;;;;5080753;28;20450;-75
2021/01/01 10:02:23;;;;;;;4.20;3.80;;;4.20;99.90;;;;;;5079561;28;20220;-75
2021/01/01 10:04:49;;;;;;;4.13;3.73;;;4.20;99.90;;;;;;5079464;28;20419;-76
2021/01/01 10:07:15;;;;;;;4.43;4.03;;;4.20;99.90;;;;;;5074631;28;20508;-75
2021/01/01 10:09:42;;;;;;;4.03;3.63;;;4.20;99.90;;;;;;5078136;28;20410;-75
2021/01/01 10:12:08;;;;;;;4.13;3.83;;;4.30;99.90;;;;;;5081979;28;20428;-74
2021/01/01 10:14:35;;;;;;;4.90;4.40;;;4.40;99.90;;;;;;5078164;28;20572;-75
2021/01/01 10:17:00;;;;;;;5.43;3.83;;;4.50;99.90;;;;;;5080319;28;20434;-73
2021/01/01 10:19:26;;;;;;;3.90;3.60;;;4.60;99.90;;;;;;5069808;28;20428;-75
2021/01/01 10:21:52;;;;;;;5.73;3.70;;;4.70;99.90;;;;;;5064815;28;20189;-75
2021/01/01 10:24:17;;;;;;;4.23;3.20;;;4.70;99.90;;;;;;5082983;28;20264;-75
2021/01/01 10:26:50;;;;;;;4.30;3.90;;;4.80;99.90;;;;;;5081419;28;20233;-75
2021/01/01 10:29:16;;;;;;;4.00;3.00;;;4.70;99.90;;;;;;5079381;28;20187;-74
2021/01/01 10:31:43;;;;;;;4.40;4.00;;;4.70;99.90;;;;;;5081712;28;20475;-74
2021/01/01 10:34:10;;;;;;;3.53;3.13;;;4.60;99.90;;;;;;5078591;28;20550;-74
2021/01/01 10:36:35;;;;;;;3.87;3.57;;;4.70;99.90;;;;;;5055536;28;20455;-75
2021/01/01 10:39:02;;;;;;;7.50;4.80;;;4.60;99.90;;;;;;5078078;28;20425;-75
2021/01/01 10:41:27;;;;;;;6.07;4.70;;;4.70;99.90;;;;;;5077398;28;20207;-75
2021/01/01 10:43:53;;;;;;;5.50;4.00;;;4.60;99.90;;;;;;5062162;28;20481;-74
2021/01/01 10:46:18;;;;;;;6.60;3.67;;;4.70;99.90;;;;;;5079596;28;20186;-75
2021/01/01 10:48:44;;;;;;;3.63;3.33;;;4.70;99.90;;;;;;5077363;28;20189;-74
2021/01/01 10:51:09;;;;;;;4.33;3.93;;;4.70;99.90;;;;;;5072806;28;20268;-75
2021/01/01 10:53:35;;;;;;;3.87;3.40;;;4.80;99.90;;;;;;5074614;28;20214;-73
2021/01/01 10:56:00;;;;;;;5.20;4.13;;;4.70;99.90;;;;;;5077498;28;20181;-74
2021/01/01 10:58:26;;;;;;;5.00;4.50;;;4.70;99.90;;;;;;5072475;28;20184;-75
2021/01/01 11:00:56;;;;;;;4.90;4.30;;;4.80;99.90;;;;;;5070637;28;20183;-75
2021/01/01 11:03:22;;;;;;;5.77;4.27;;;4.60;99.90;;;;;;5070720;28;20461;-74
2021/01/01 11:05:48;;;;;;;4.90;3.77;;;4.50;99.90;;;;;;5070622;28;20438;-74
2021/01/01 11:08:14;;;;;;;5.20;3.90;;;4.50;99.90;;;;;;5069828;28;20435;-74
2021/01/01 11:10:39;;;;;;;9.47;4.50;;;4.50;99.90;;;;;;5069064;28;20463;-74
2021/01/01 11:13:06;;;;;;;5.13;4.30;;;4.50;99.90;;;;;;5060474;28;20221;-74
2021/01/01 12:19:43;;;;;;;6.13;4.53;;;4.90;99.90;;;;;;5046130;28;20994;-74
2021/01/01 12:22:04;;;;;;;4.40;4.00;;;4.90;99.90;;;;;;5061405;28;20984;-74
2021/01/01 12:27:01;;;;;;;3.70;3.40;;;5.00;99.90;;;;;;5068365;28;21193;-74
2021/01/01 12:29:27;;;;;;;4.17;3.77;;;5.00;99.90;;;;;;5068261;28;20474;-74
2021/01/01 12:31:53;;;;;;;7.10;4.67;;;5.10;99.90;;;;;;5068435;28;20493;-74
2021/01/01 12:34:19;;;;;;;4.87;3.83;;;5.10;99.90;;;;;;5067906;28;20632;-76
2021/01/01 12:36:44;;;;;;;5.83;4.70;;;5.20;99.90;;;;;;5057588;28;20256;-75
2021/01/01 12:39:10;;;;;;;5.77;4.30;;;5.30;99.90;;;;;;5059050;28;20193;-74
2021/01/01 12:41:36;;;;;;;5.50;4.30;;;5.30;99.90;;;;;;5069974;28;20172;-74
2021/01/01 12:44:01;;;;;;;4.70;3.80;;;5.30;99.90;;;;;;5069807;28;20210;-74
2021/01/01 12:46:27;;;;;;;6.27;4.70;;;5.30;99.90;;;;;;5068339;28;20236;-75
2021/01/01 12:48:52;;;;;;;4.93;4.07;;;5.20;99.90;;;;;;5071413;28;20213;-74
2021/01/01 12:51:18;;;;;;;5.53;4.97;;;5.10;99.90;;;;;;5082377;28;20610;-74
2021/01/01 12:53:44;;;;;;;4.73;3.50;;;5.00;99.90;;;;;;5082540;28;20232;-74
2021/01/01 12:56:10;;;;;;;5.10;4.60;;;5.10;99.90;;;;;;5082492;28;20601;-74
2021/01/01 12:58:35;;;;;;;6.17;4.37;;;5.10;99.90;;;;;;5075121;28;20513;-75
2021/01/01 13:01:01;;;;;;;7.63;4.70;;;5.20;99.90;;;;;;5079739;28;20541;-74
2021/01/01 13:03:26;;;;;;;5.30;4.50;;;5.20;99.90;;;;;;5081426;28;20203;-75
2021/01/01 13:05:52;;;;;;;5.97;5.37;;;5.20;99.90;;;;;;5082196;28;20228;-73
2021/01/01 13:08:18;;;;;;;5.53;4.37;;;5.20;99.90;;;;;;5081148;28;20187;-74
2021/01/01 13:10:43;;;;;;;4.23;3.83;;;5.20;99.90;;;;;;5082183;28;20547;-74
2021/01/01 13:13:09;;;;;;;7.30;5.00;;;5.10;99.90;;;;;;5079222;28;20278;-75
2021/01/01 13:15:34;;;;;;;6.43;4.30;;;5.20;99.90;;;;;;5083006;28;20198;-76
2021/01/01 13:18:00;;;;;;;6.80;4.47;;;5.10;99.90;;;;;;5062232;28;20913;-74
2021/01/01 13:20:25;;;;;;;6.10;4.80;;;5.10;99.90;;;;;;5077442;28;20186;-77
2021/01/01 13:22:51;;;;;;;5.87;4.47;;;5.10;99.90;;;;;;5081079;28;20209;-75
2021/01/01 13:25:20;;;;;;;6.60;4.33;;;5.00;99.90;;;;;;5079954;28;20193;-75
2021/01/01 13:27:46;;;;;;;6.30;4.90;;;5.00;99.90;;;;;;5081823;28;20650;-75
2021/01/01 13:30:15;;;;;;;5.53;4.43;;;4.90;99.90;;;;;;5079568;28;20432;-77
2021/01/01 13:32:40;;;;;;;6.30;4.50;;;4.90;99.90;;;;;;5082341;28;20365;-75
2021/01/01 13:35:06;;;;;;;4.60;4.10;;;4.90;99.90;;;;;;5076574;28;20479;-75
2021/01/01 13:37:32;;;;;;;4.07;3.67;;;4.80;99.90;;;;;;5081478;28;20571;-75
2021/01/01 13:39:57;;;;;;;5.20;4.60;;;4.80;99.90;;;;;;5079441;28;20427;-74
2021/01/01 13:42:23;;;;;;;6.67;3.90;;;4.80;99.90;;;;;;5080868;28;20212;-75
2021/01/01 13:44:48;;;;;;;4.30;3.87;;;4.70;99.90;;;;;;5081666;28;20237;-75
2021/01/01 13:47:14;;;;;;;4.17;3.60;;;4.70;99.90;;;;;;5082085;28;20176;-75
2021/01/01 13:49:39;;;;;;;4.80;4.30;;;4.70;99.90;;;;;;5060752;28;20248;-75
2021/01/01 13:52:05;;;;;;;5.40;4.20;;;4.70;99.90;;;;;;5082438;28;20269;-75
2021/01/01 13:54:30;;;;;;;4.83;4.33;;;4.70;99.90;;;;;;5077567;28;20217;-75
2021/01/01 13:56:57;;;;;;;4.53;3.57;;;4.70;99.90;;;;;;5079872;28;20261;-75
2021/01/01 13:59:22;;;;;;;5.27;3.90;;;4.70;99.90;;;;;;5081089;28;20544;-75